• Join FlightAware (Why Join?)
  • Login
  • US Flag 
11:56AM EST


 

Airport Tracker/Info


-or-


 

Live Flight TrackerFlight Track Log ✈ DAL3698 ✈ 20-Apr-2013 ✈ KLAN - KMSP

Flight Track Log - Related Links

Times and Time Zones

All times are in EDT time to prevent confusion due to time zone crossing. See the DAL3698 flight status page for this flight to view local times or setup timezone preferences in your user account.

Time Position Orientation Groundspeed Altitude Reporting Facility
EDT Latitude Longitude Course Direction KTS MPH feet Rate Location/Type
07:38AM 42.7797 -84.6617 270° West 190 219 4,100  Level Chicago Center
07:39AM 42.7803 -84.7400 271° West 207 238 6,300 2,520 Climbing Chicago Center
07:40AM 42.7825 -84.8325 272° West 236 272 9,300 2,460 Climbing Chicago Center
07:41AM 42.7761 -85.0659 281° West  Level FlightAware Approximate
07:41AM 42.7911 -84.9242 277° West 252 290 11,400  Level Chicago Center
07:42AM 42.7834 -85.1859 270° West  Level FlightAware Approximate
07:42AM 42.8192 -85.0242 291° West 281 323 12,500  Level Chicago Center
07:43AM 42.7834 -85.3068 270° West  Level FlightAware Approximate
07:43AM 42.8500 -85.1336 291° West 307 353 14,000  Level Chicago Center
07:44AM 42.7834 -85.4248 270° West  Level FlightAware Approximate
07:44AM 42.8814 -85.2458 291° West 317 365 15,500  Level Chicago Center
07:45AM 42.9136 -85.3603 291° West 323 372 17,000 1,680 Climbing Chicago Center
07:46AM 42.9525 -85.5033 290° West 334 384 18,900 1,620 Climbing Chicago Center
07:48AM 42.9858 -85.6236 291° West 339 390 20,300 1,140 Climbing Chicago Center
07:49AM 43.0200 -85.7478 291° West 349 402 21,300 960 Climbing Chicago Center
07:50AM 43.0547 -85.8753 290° West 359 413 22,300 900 Climbing Chicago Center
07:51AM 43.0894 -85.9981 291° West 364 419 23,200 900 Climbing Chicago Center
07:52AM 43.1233 -86.1264 290° West 368 423 24,200 960 Climbing Chicago Center
07:53AM 43.1589 -86.2578 290° West 370 426 25,200 960 Climbing Chicago Center
07:54AM 43.2008 -86.4128 290° West 363 418 26,200 840 Climbing Chicago Center
07:55AM 43.2364 -86.5433 291° West 366 421 27,000 720 Climbing Chicago Center
07:56AM 43.2706 -86.6739 290° West 366 421 27,700 480 Climbing Chicago Center
07:57AM 43.3050 -86.8061 290° West 368 423 28,000 120 Climbing Chicago Center
07:58AM 43.3403 -86.9414 290° West 375 432 28,000  Level Chicago Center
07:59AM 43.3772 -87.0808 290° West 387 445 28,000  Level Chicago Center
08:00AM 43.4136 -87.2231 289° West 395 455 28,000  Level Chicago Center
08:01AM 43.4519 -87.3739 289° West 396 456 28,000  Level Chicago Center
08:02AM 43.4869 -87.5175 289° West 395 455 28,000  Level Chicago Center
08:03AM 43.5247 -87.6617 290° West 400 460 28,000  Level Chicago Center
08:04AM 43.5608 -87.8072 289° West 401 461 28,000  Level Chicago Center
08:05AM 43.5981 -87.9514 290° West 402 463 28,000  Level Chicago Center
08:06AM 43.6392 -88.1194 289° West 399 459 28,000  Level Chicago Center
08:07AM 43.6739 -88.2628 289° West 397 457 28,000  Level Chicago Center
08:08AM 43.7031 -88.3811 289° West 397 457 28,000  Level Minneapolis Center
08:09AM 43.7431 -88.5472 288° West 395 455 28,000  Level Minneapolis Center
08:10AM 43.7772 -88.6892 288° West 392 451 28,000  Level Minneapolis Center
08:11AM 43.8114 -88.8325 288° West 394 453 28,000  Level Minneapolis Center
08:12AM 43.8461 -88.9744 289° West 392 451 28,000  Level Minneapolis Center
08:13AM 43.8783 -89.1167 287° West 389 448 28,000  Level Minneapolis Center
08:14AM 43.9122 -89.2575 289° West 387 445 28,000  Level Minneapolis Center
08:15AM 43.9456 -89.3983 288° West 384 442 28,000  Level Minneapolis Center
08:16AM 43.9783 -89.5403 288° West 386 444 28,000  Level Minneapolis Center
08:17AM 44.0117 -89.6794 288° West 383 441 28,000  Level Minneapolis Center
08:18AM 44.0442 -89.8211 288° West 384 442 28,000  Level Minneapolis Center
08:19AM 44.0781 -89.9614 289° West 383 441 28,000  Level Minneapolis Center
08:20AM 44.1256 -90.0914 297° West 378 435 28,000  Level Minneapolis Center
08:21AM 44.1731 -90.2225 297° West 379 436 28,000 -420 Level Minneapolis Center
08:22AM 44.2194 -90.3542 296° West 380 437 27,200 -1,200 Descending Minneapolis Center
08:23AM 44.2714 -90.5061 296° West 374 430 25,700 -1,380 Descending Minneapolis Center
08:24AM 44.3158 -90.6314 296° West 363 418 24,400 -840 Descending Minneapolis Center
08:25AM 44.3586 -90.7572 295° West 360 414 24,000 -240 Descending Minneapolis Center
08:26AM 44.4033 -90.8819 297° West 359 413 24,000  Level Minneapolis Center
08:27AM 44.4456 -91.0069 295° West 354 407 24,000  Level Minneapolis Center
08:28AM 44.4861 -91.1292 295° West 350 403 24,000  Level Minneapolis Center
08:29AM 44.5292 -91.2511 296° West 351 404 24,000  Level Minneapolis Center
08:30AM 44.5706 -91.3744 295° West 351 404 24,000 -660 Level Minneapolis Center
08:31AM 44.6114 -91.4967 295° West 350 403 22,700 -1,680 Descending Minneapolis Center
08:32AM 44.6525 -91.6181 295° West 347 399 20,700 -1,980 Descending Minneapolis Center
08:33AM 44.6936 -91.7419 295° West 349 402 18,700 -1,920 Descending Minneapolis Center
08:34AM 44.7356 -91.8678 295° West 356 410 16,900 -2,040 Descending Minneapolis Center
08:35AM 44.7644 -91.9286 304° West 350 403 15,900 -2,340 Descending FAA TRACON SMA TRACON (SMA)
08:35AM 44.7764 -91.9664 294° West 348 400 15,300 -1,980 Descending FAA TRACON SMA TRACON (SMA)
08:35AM 44.7894 -92.0031 297° West 342 394 14,600 -2,100 Descending FAA TRACON SMA TRACON (SMA)
08:36AM 44.8036 -92.0489 294° West 335 386 13,900 -1,980 Descending FAA TRACON SMA TRACON (SMA)
08:36AM 44.8150 -92.0850 294° West 331 381 13,300 -2,100 Descending FAA TRACON SMA TRACON (SMA)
08:36AM 44.8289 -92.1297 294° West 327 376 12,500 -2,100 Descending FAA TRACON SMA TRACON (SMA)
08:37AM 44.8403 -92.1650 294° West 324 373 11,900 -1,800 Descending FAA TRACON SMA TRACON (SMA)
08:37AM 44.8508 -92.2000 293° West 320 368 11,300 -2,100 Descending FAA TRACON SMA TRACON (SMA)
08:37AM 44.8656 -92.2439 295° West 321 369 10,500 -1,800 Descending FAA TRACON SMA TRACON (SMA)
08:38AM 44.8756 -92.2786 292° West 318 366 10,100 -780 Descending FAA TRACON SMA TRACON (SMA)
08:38AM 44.8794 -92.3164 278° West 317 365 10,000 -180 Descending FAA TRACON SMA TRACON (SMA)
08:38AM 44.8675 -92.3625 250° West 328 377 10,000  Level FAA TRACON SMA TRACON (SMA)
08:39AM 44.8539 -92.3964 240° Southwest 330 380 10,000  Level FAA TRACON SMA TRACON (SMA)
08:39AM 44.8467 -92.4319 254° West 318 366 10,000 -180 Level FAA TRACON SMA TRACON (SMA)
08:39AM 44.8372 -92.4728 252° West 291 335 9,900 -780 Descending FAA TRACON SMA TRACON (SMA)
08:40AM 44.8306 -92.5033 253° West 273 314 9,500 -1,380 Descending FAA TRACON SMA TRACON (SMA)
08:40AM 44.8231 -92.5336 251° West 266 306 9,000 -1,440 Descending FAA TRACON SMA TRACON (SMA)
08:40AM 44.8150 -92.5722 254° West 265 305 8,500 -1,560 Descending FAA TRACON SMA TRACON (SMA)
08:41AM 44.8061 -92.6103 252° West 268 308 7,900 -1,680 Descending FAA TRACON SMA TRACON (SMA)
08:41AM 44.8011 -92.6333 253° West 267 307 7,500 -1,500 Descending FAA TRACON SMA TRACON (SMA)
08:41AM 44.7919 -92.6711 251° West 265 305 7,000 -1,500 Descending FAA TRACON SMA TRACON (SMA)
08:42AM 44.7853 -92.7008 252° West 261 300 6,500 -1,560 Descending FAA TRACON SMA TRACON (SMA)
08:42AM 44.7775 -92.7306 250° West 260 299 6,000 -1,440 Descending FAA TRACON SMA TRACON (SMA)
08:42AM 44.7711 -92.7597 253° West 257 296 5,600 -1,500 Descending FAA TRACON SMA TRACON (SMA)
08:42AM 44.7633 -92.7958 253° West 256 295 5,000 -1,620 Descending FAA TRACON SMA TRACON (SMA)
08:43AM 44.7564 -92.8247 251° West 252 290 4,500 -1,320 Descending FAA TRACON SMA TRACON (SMA)
08:43AM 44.7492 -92.8539 251° West 253 291 4,100 -780 Descending FAA TRACON SMA TRACON (SMA)
08:44AM 44.7419 -92.8886 254° West 245 282 4,000 -180 Descending FAA TRACON SMA TRACON (SMA)
08:44AM 44.7444 -92.9147 278° West 237 273 4,000  Level FAA TRACON SMA TRACON (SMA)
08:44AM 44.7550 -92.9356 306° West 221 254 4,000  Level FAA TRACON SMA TRACON (SMA)
08:45AM 44.7683 -92.9594 308° West 205 236 4,000  Level FAA TRACON SMA TRACON (SMA)
08:45AM 44.7783 -92.9786 306° West 197 227 4,000  Level FAA TRACON SMA TRACON (SMA)
08:45AM 44.7889 -93.0031 301° West 192 221 4,000 -180 Level FAA TRACON SMA TRACON (SMA)
08:46AM 44.7964 -93.0225 299° West 186 214 3,900 -600 Descending FAA TRACON SMA TRACON (SMA)
08:46AM 44.8042 -93.0411 301° West 180 207 3,600 -900 Descending FAA TRACON SMA TRACON (SMA)
08:46AM 44.8136 -93.0636 301° West 174 200 3,300 -900 Descending FAA TRACON SMA TRACON (SMA)
08:47AM 44.8211 -93.0800 303° West 165 190 3,000 -900 Descending FAA TRACON SMA TRACON (SMA)
08:47AM 44.8278 -93.0956 301° West 155 178 2,700 -900 Descending FAA TRACON SMA TRACON (SMA)
08:47AM 44.8358 -93.1139 302° West 144 166 2,400 -900 Descending FAA TRACON SMA TRACON (SMA)